Arapahoe, NC

10:59 PM EDT on April 21, 2015 (GMT -0400)
APRSWXNET | | Change Station
CLOSE
Current Station
Personal Weather Station
Location: Arapahoe, NC
Elevation: 6 ft
Nearby Weather Stations
Active Advisory: Special Statement

Elev 6 ft 35.03 °N, 76.83 °W | Updated 53 minutes ago

Partly Cloudy
Partly Cloudy
62 °F
Feels Like 62 °F
N
0
Wind Variable Wind from WNW
Gusts 1.0 mph

Today
High -- | Low -- °F
--% Chance of Precip.
Yesterday
High -- | Low -- °F
Precip. -- in
6:28 AM 7:44 PM
Waxing Crescent, 14% visible
Pressure 29.89 in
Visibility 10.0 miles
Clouds Clear
Dew Point 56 °F
Humidity 81%
Rainfall in
Snow Depth Not available.
UV 0 out of 12
Pollen 10.20 out of 12
Air Quality Not available.
Flu Activity Sporadic
METAR KNKT 220254Z 22004KT 10SM CLR 16/13 A2990 RMK AO2 SLP121 T01560128 51016

More Conditions Fewer Conditions

Pressure 29.89 in
Visibility 10.0 miles
Clouds Clear
Dew Point 56 °F
Humidity 81%
Rainfall in
Snow Depth Not available.
UV 0 out of 12
Pollen 10.20 out of 12
Air Quality Not available.
Flu Activity Sporadic
METAR KNKT 220254Z 22004KT 10SM CLR 16/13 A2990 RMK AO2 SLP121 T01560128 51016

More Conditions Fewer Conditions

10-Day Weather Forecast

Almanac

Astronomy

Apr. 21, 2015 Rise Set
Actual Time
Civil Twilight
Nautical Twilight
Astronomical Twilight
Moon
Length of Visible Light
Length of Day
Tomorrow will be .
, % of the Moon is Illuminated

Today's Extremes

State Highs State Lows

Community

WunderPhotos

Upload Photos

1,815,642 photos uploaded!

WunderBlogs® & News

Nearby

Air Quality

  Air Quality AQ Index Pollutant
Not available.

Snow Depth

Station Depth Elevation

Earthquake Activity

City Distance Mag. Time & Date
Minimum magnitude displayed is 2.5.

Coastal Water Temperatures

Place Temperature

Stations

Nearby Weather Stations

Station Location Temp. Windchill Dew Point Humidity Wind Precip. Elev Updated Type
                   
Special Statement
Statement as of 2:42 PM EDT on April 21, 2015

... Increased fire danger across portions of eastern North Carolina
Wednesday...

Gusty west to southwest winds and low relative humidity will
combine for an increased fire danger Wednesday. Sustained winds 15
to 20 mph with gusts to 25 mph, along with relative humidity
between 25 to 30 percent will contribute to the fire danger threat
during the afternoon.

Residents are urged to avoid outdoor burning Wednesday, especially
during the afternoon.